Terminal Aerodrome Forecast
Issued by NWS Green Bay, WI

Home | Current Version | Previous Version | Text Only | Print | Product List | Glossary Off
Versions: 1 2 3 4 5 6 7 8 9 10 11 12 13 14 15 16 17 18 19 20 21 22 23 24 25 26 27 28 29 30 31 32 33 34 35 36 37 38 39 40 41 42 43 44 45 46 47 48 49 50

000
FTUS43 KGRB 241700
TAFGRB
TAF
KGRB 241720Z 2418/2518 31011KT P6SM -RA SCT007 OVC012
     FM242000 31012G20KT 6SM -RASN BR SCT006 OVC011
      TEMPO 2420/2422 3SM -SN BKN006
     FM242200 31012G20KT 1SM -SN SCT004 OVC008
      TEMPO 2422/2502 1/2SM SN OVC004
     FM250200 30012KT 1SM -SN OVC008
     FM250900 30009KT 5SM -SN OVC015
     FM251300 29008KT P6SM OVC025=

USA.gov is the U.S. government's official web portal to all federal, state and local government web resources and services.